Time;durP1;ratioP1;P1;durP2;ratioP2;P2;SDS_P1;SDS_P2;PMS_P1;PMS_P2;Temp;Humidity;BMP_temperature;BMP_pressure;BME280_temperature;BME280_humidity;BME280_pressure;Samples;Min_cycle;Max_cycle;Signal;HPM_P1;HPM_P2
2023/11/13 00:01:35;;;;;;;7.45;5.15;;;;;;;5.16;100.00;96751.94;5056927;28;20103;-64
2023/11/13 00:04:03;;;;;;;7.03;4.68;;;;;;;5.16;100.00;96735.84;5051716;28;20110;-64
2023/11/13 00:06:29;;;;;;;6.88;4.63;;;;;;;5.21;100.00;96731.38;5052041;28;20041;-64
2023/11/13 00:08:56;;;;;;;7.30;4.57;;;;;;;5.14;100.00;96729.88;5058994;28;20060;-64
2023/11/13 00:11:22;;;;;;;7.75;4.82;;;;;;;5.05;100.00;96735.56;5054533;28;20041;-62
2023/11/13 00:13:49;;;;;;;6.88;4.15;;;;;;;5.08;100.00;96759.25;5057489;28;20040;-61
2023/11/13 00:16:16;;;;;;;8.18;4.57;;;;;;;5.08;100.00;96751.22;5049849;28;20041;-62
2023/11/13 00:18:43;;;;;;;7.78;4.75;;;;;;;5.05;100.00;96748.19;5050702;28;20051;-62
2023/11/13 00:21:11;;;;;;;8.30;4.80;;;;;;;5.04;100.00;96744.69;5061997;28;20041;-62
2023/11/13 00:23:37;;;;;;;8.07;5.13;;;;;;;5.06;100.00;96755.97;5055917;28;20610;-62
2023/11/13 00:26:05;;;;;;;8.15;4.63;;;;;;;5.02;100.00;96749.44;5051688;28;20037;-62
2023/11/13 00:28:31;;;;;;;8.60;4.72;;;;;;;5.04;100.00;96762.63;5057857;28;20045;-62
2023/11/13 00:30:58;;;;;;;8.73;5.45;;;;;;;4.97;100.00;96762.75;5060493;28;20072;-62
2023/11/13 00:33:26;;;;;;;8.57;5.78;;;;;;;5.03;100.00;96775.25;5054167;28;20038;-62
2023/11/13 00:35:53;;;;;;;12.45;6.38;;;;;;;5.12;100.00;96791.81;5057634;28;20487;-62
2023/11/13 00:38:20;;;;;;;10.90;6.10;;;;;;;5.14;100.00;96791.59;5049288;28;20044;-65
2023/11/13 00:40:47;;;;;;;10.77;6.10;;;;;;;5.15;100.00;96783.31;5065284;28;20051;-62
2023/11/13 00:43:14;;;;;;;10.05;5.60;;;;;;;5.21;100.00;96784.25;5050353;28;20561;-62
2023/11/13 00:45:42;;;;;;;9.98;6.20;;;;;;;5.18;100.00;96771.28;5060437;28;20527;-62
2023/11/13 00:48:08;;;;;;;9.93;6.70;;;;;;;5.18;100.00;96769.44;5034940;28;20045;-62
2023/11/13 00:50:35;;;;;;;11.20;6.68;;;;;;;5.21;100.00;96752.84;5049722;28;20575;-62
2023/11/13 00:53:01;;;;;;;10.18;6.00;;;;;;;5.28;100.00;96752.75;5049499;28;20179;-62
2023/11/13 00:55:28;;;;;;;9.75;6.00;;;;;;;5.43;100.00;96738.03;5043294;28;20048;-62
2023/11/13 00:57:55;;;;;;;10.05;6.20;;;;;;;5.54;100.00;96715.75;5045255;28;20040;-61
2023/11/13 01:00:22;;;;;;;12.65;6.35;;;;;;;5.59;100.00;96699.72;5041963;28;20041;-61
2023/11/13 01:02:50;;;;;;;9.65;6.10;;;;;;;5.51;100.00;96697.41;5040823;28;20037;-62
2023/11/13 01:05:16;;;;;;;10.60;7.03;;;;;;;5.40;100.00;96695.53;5038461;28;20767;-62
2023/11/13 01:07:43;;;;;;;10.07;6.22;;;;;;;5.33;100.00;96714.47;5047152;28;20534;-62
2023/11/13 01:10:13;;;;;;;10.98;6.43;;;;;;;5.29;100.00;96719.50;5019417;28;20140;-61
2023/11/13 01:12:39;;;;;;;12.70;7.28;;;;;;;5.33;100.00;96726.03;5039535;28;20086;-61
2023/11/13 01:15:09;;;;;;;13.05;7.55;;;;;;;5.33;100.00;96730.56;5037316;28;20045;-62
2023/11/13 01:17:36;;;;;;;13.40;7.28;;;;;;;5.37;100.00;96731.72;5036274;28;20056;-62
2023/11/13 01:20:04;;;;;;;10.68;6.50;;;;;;;5.35;100.00;96747.28;5039824;28;20041;-62
2023/11/13 01:22:31;;;;;;;13.35;7.15;;;;;;;5.32;100.00;96756.63;5035317;28;20034;-62
2023/11/13 01:24:58;;;;;;;12.45;6.80;;;;;;;5.32;100.00;96759.28;5036112;28;20044;-62
2023/11/13 01:27:24;;;;;;;12.80;7.60;;;;;;;5.31;100.00;96759.53;5038567;28;20512;-62
2023/11/13 01:29:51;;;;;;;16.23;7.95;;;;;;;5.30;100.00;96771.28;5038677;28;20531;-62
2023/11/13 01:32:17;;;;;;;13.38;7.65;;;;;;;5.30;100.00;96760.56;5032620;28;20088;-61
2023/11/13 01:34:44;;;;;;;14.52;7.97;;;;;;;5.36;100.00;96766.88;5048238;28;20140;-62
2023/11/13 01:37:10;;;;;;;15.70;8.68;;;;;;;5.33;100.00;96768.97;5034613;28;20053;-62
2023/11/13 01:39:37;;;;;;;13.55;7.18;;;;;;;5.34;100.00;96761.72;5031582;28;20037;-62
2023/11/13 01:42:05;;;;;;;14.32;7.38;;;;;;;5.39;100.00;96761.03;5049821;28;20094;-61
2023/11/13 01:44:31;;;;;;;10.90;6.68;;;;;;;5.40;100.00;96763.50;5035229;28;20033;-62
2023/11/13 01:46:58;;;;;;;17.45;7.10;;;;;;;5.41;100.00;96766.97;5025665;28;20762;-62
2023/11/13 01:49:25;;;;;;;13.15;7.10;;;;;;;5.43;100.00;96768.41;5036537;28;20037;-62
2023/11/13 01:51:54;;;;;;;13.65;6.75;;;;;;;5.51;100.00;96774.44;5034877;28;20559;-62
2023/11/13 01:54:22;;;;;;;12.05;7.15;;;;;;;5.47;100.00;96774.09;5033786;28;20476;-62
2023/11/13 01:56:51;;;;;;;15.25;7.90;;;;;;;5.50;100.00;96780.88;5040266;28;20035;-61
2023/11/13 01:59:17;;;;;;;10.70;6.13;;;;;;;5.69;100.00;96776.19;5033216;28;20420;-61
2023/11/13 02:01:44;;;;;;;11.07;5.35;;;;;;;5.78;100.00;96773.97;5029237;28;20029;-62
2023/11/13 02:04:11;;;;;;;11.68;5.93;;;;;;;5.76;100.00;96768.84;5045086;28;20528;-62
2023/11/13 02:06:39;;;;;;;12.20;6.40;;;;;;;5.81;100.00;96773.50;5040170;28;20037;-62
2023/11/13 02:09:10;;;;;;;11.02;5.40;;;;;;;5.82;100.00;96773.25;5039570;28;20041;-62
2023/11/13 02:11:37;;;;;;;8.18;4.72;;;;;;;5.93;100.00;96766.22;5048131;28;20038;-62
2023/11/13 02:14:06;;;;;;;14.70;5.80;;;;;;;5.95;100.00;96756.06;5044509;28;20099;-62
2023/11/13 02:16:34;;;;;;;10.40;5.95;;;;;;;5.95;100.00;96739.94;5031378;28;20043;-62
2023/11/13 02:19:01;;;;;;;13.32;6.55;;;;;;;5.89;100.00;96730.13;5040451;28;20091;-61
2023/11/13 02:21:28;;;;;;;11.90;6.32;;;;;;;5.91;100.00;96725.34;5036674;28;20048;-62
2023/11/13 02:23:55;;;;;;;12.65;6.15;;;;;;;5.90;100.00;96731.75;5042242;28;20041;-62
2023/11/13 02:26:23;;;;;;;12.00;6.40;;;;;;;5.93;100.00;96714.38;5032353;28;20037;-61
2023/11/13 02:28:51;;;;;;;9.00;5.43;;;;;;;5.96;100.00;96720.06;5049504;28;20044;-62
2023/11/13 02:31:18;;;;;;;9.02;5.32;;;;;;;6.06;100.00;96729.44;5034649;28;20037;-62
2023/11/13 02:33:45;;;;;;;14.38;6.07;;;;;;;6.05;100.00;96727.81;5033643;28;20040;-62
2023/11/13 02:36:12;;;;;;;7.38;4.82;;;;;;;6.06;100.00;96741.00;5035098;28;20068;-62
2023/11/13 02:38:38;;;;;;;10.00;5.15;;;;;;;6.08;100.00;96732.72;5042193;28;20044;-62
2023/11/13 02:41:05;;;;;;;12.07;5.25;;;;;;;6.09;100.00;96723.56;5044088;28;20743;-62
2023/11/13 02:43:32;;;;;;;9.75;5.55;;;;;;;6.12;100.00;96715.03;5040025;28;20111;-62
2023/11/13 02:45:59;;;;;;;8.45;5.15;;;;;;;6.11;100.00;96692.72;5038157;28;20048;-62
2023/11/13 02:48:26;;;;;;;10.20;6.00;;;;;;;6.20;100.00;96695.03;5045883;28;20576;-62
2023/11/13 02:50:52;;;;;;;8.85;4.93;;;;;;;6.29;100.00;96690.88;5037538;28;20101;-62
2023/11/13 02:53:19;;;;;;;9.68;4.95;;;;;;;6.37;100.00;96693.19;5037780;28;20375;-62
2023/11/13 02:55:47;;;;;;;8.95;4.57;;;;;;;6.36;100.00;96677.28;5036269;28;20041;-62
2023/11/13 02:58:13;;;;;;;10.00;5.32;;;;;;;6.40;100.00;96677.59;5029211;28;20056;-62
2023/11/13 03:00:40;;;;;;;8.10;4.75;;;;;;;6.46;100.00;96661.34;5034588;28;20037;-62
2023/11/13 03:03:07;;;;;;;9.57;4.72;;;;;;;6.48;100.00;96669.97;5038635;28;20037;-61
2023/11/13 03:05:33;;;;;;;11.30;4.95;;;;;;;6.54;100.00;96662.00;5027365;28;20046;-62
2023/11/13 03:08:00;;;;;;;7.82;4.45;;;;;;;6.66;100.00;96656.56;5028545;28;20041;-62
2023/11/13 03:10:27;;;;;;;7.80;4.63;;;;;;;6.74;100.00;96654.25;5035129;28;20125;-62
2023/11/13 03:12:54;;;;;;;6.93;4.13;;;;;;;6.83;100.00;96640.38;5039270;28;20456;-62
2023/11/13 03:15:21;;;;;;;7.78;4.18;;;;;;;6.82;100.00;96631.50;5044347;28;20053;-62
2023/11/13 03:17:48;;;;;;;11.23;4.78;;;;;;;6.87;100.00;96631.59;5040266;28;20033;-62
2023/11/13 03:20:15;;;;;;;6.22;4.00;;;;;;;6.89;100.00;96639.41;5037707;28;20458;-62
2023/11/13 03:22:41;;;;;;;7.45;4.38;;;;;;;6.72;100.00;96640.25;5045576;28;20080;-62
2023/11/13 03:25:10;;;;;;;7.63;4.53;;;;;;;6.71;100.00;96648.56;5037373;28;20049;-62
2023/11/13 03:27:36;;;;;;;6.82;3.67;;;;;;;6.68;100.00;96678.63;5039730;28;20041;-62
2023/11/13 03:30:04;;;;;;;9.65;3.70;;;;;;;6.70;100.00;96685.41;5040382;28;20057;-62
2023/11/13 03:32:30;;;;;;;7.90;3.95;;;;;;;6.73;100.00;96692.16;5043170;28;20049;-62
2023/11/13 03:34:57;;;;;;;8.00;3.78;;;;;;;6.73;100.00;96713.69;5035240;28;20045;-62
2023/11/13 03:37:23;;;;;;;8.00;4.05;;;;;;;6.75;100.00;96720.44;5037417;28;20095;-62
2023/11/13 03:39:51;;;;;;;7.95;3.92;;;;;;;6.81;100.00;96726.75;5044632;28;20124;-62
2023/11/13 03:42:18;;;;;;;9.52;4.38;;;;;;;6.85;100.00;96738.66;5048483;28;20044;-63
2023/11/13 03:44:44;;;;;;;6.35;3.40;;;;;;;6.92;100.00;96743.88;5037731;28;20543;-63
2023/11/13 03:47:11;;;;;;;5.85;3.42;;;;;;;6.97;100.00;96746.63;5041956;28;20035;-63
2023/11/13 03:49:38;;;;;;;6.43;2.72;;;;;;;7.09;100.00;96749.28;5037486;28;20037;-63
2023/11/13 03:52:06;;;;;;;5.50;2.60;;;;;;;7.18;100.00;96749.66;5035221;28;20052;-63
2023/11/13 03:54:33;;;;;;;6.40;2.33;;;;;;;7.24;100.00;96731.72;5030185;28;20045;-63
2023/11/13 03:57:00;;;;;;;5.13;1.90;;;;;;;7.35;100.00;96738.06;5045064;28;20055;-63
2023/11/13 03:59:26;;;;;;;8.20;2.03;;;;;;;7.47;100.00;96719.09;5043678;28;20120;-63
2023/11/13 04:01:53;;;;;;;5.50;1.90;;;;;;;7.57;100.00;96713.06;5038754;28;20385;-63
2023/11/13 04:04:20;;;;;;;5.45;1.58;;;;;;;7.72;100.00;96707.88;5039467;28;20049;-63
2023/11/13 04:06:49;;;;;;;5.35;1.20;;;;;;;7.87;100.00;96718.03;5037704;28;20522;-63
2023/11/13 04:09:16;;;;;;;9.60;1.23;;;;;;;8.06;100.00;96698.84;5035007;28;20068;-63
2023/11/13 04:11:45;;;;;;;6.32;1.00;;;;;;;8.29;100.00;96678.84;5038349;28;20403;-63
2023/11/13 04:14:12;;;;;;;6.60;1.17;;;;;;;8.56;100.00;96664.56;5035016;28;20052;-63
2023/11/13 04:16:38;;;;;;;5.55;1.20;;;;;;;8.69;100.00;96657.13;5044501;28;20043;-63
2023/11/13 04:19:05;;;;;;;5.30;0.98;;;;;;;8.77;100.00;96659.34;5034273;28;20053;-63
2023/11/13 04:21:32;;;;;;;5.68;1.42;;;;;;;8.85;100.00;96666.16;5041519;28;20034;-63
2023/11/13 04:23:59;;;;;;;5.78;1.10;;;;;;;8.93;100.00;96667.56;5044712;28;20051;-62
2023/11/13 04:26:26;;;;;;;7.03;1.67;;;;;;;8.95;100.00;96670.81;5046066;28;20033;-62
2023/11/13 04:28:53;;;;;;;4.78;1.45;;;;;;;8.97;100.00;96652.47;5044739;28;20051;-62
2023/11/13 04:31:20;;;;;;;6.18;1.70;;;;;;;8.98;100.00;96649.53;5040821;28;20123;-63
2023/11/13 04:33:48;;;;;;;5.97;2.33;;;;;;;9.11;100.00;96642.84;5043140;28;20037;-62
2023/11/13 04:36:15;;;;;;;6.72;1.70;;;;;;;9.19;100.00;96638.03;5050666;28;20597;-62
2023/11/13 04:38:42;;;;;;;5.63;1.27;;;;;;;9.23;100.00;96644.53;5044153;28;20049;-62
2023/11/13 04:41:10;;;;;;;9.45;1.77;;;;;;;9.19;100.00;96641.56;5052577;28;20655;-63
2023/11/13 04:43:38;;;;;;;8.38;1.40;;;;;;;9.14;100.00;96638.81;5047128;28;20045;-63
2023/11/13 04:46:06;;;;;;;4.75;1.20;;;;;;;9.19;100.00;96633.44;5045017;28;20048;-63
2023/11/13 04:48:32;;;;;;;13.23;1.60;;;;;;;9.26;100.00;96627.81;5046968;28;20559;-63
2023/11/13 04:50:59;;;;;;;6.95;1.13;;;;;;;9.28;100.00;96632.97;5038289;28;20041;-63
2023/11/13 04:53:26;;;;;;;12.75;1.80;;;;;;;9.35;100.00;96638.94;5044023;28;20528;-63
2023/11/13 04:55:53;;;;;;;5.50;1.30;;;;;;;9.36;100.00;96643.25;5036678;28;20044;-63
2023/11/13 04:58:20;;;;;;;8.95;1.70;;;;;;;9.32;100.00;96645.66;5041348;28;20041;-63
2023/11/13 05:00:48;;;;;;;9.82;1.92;;;;;;;9.34;100.00;96654.34;5043607;28;20036;-63
2023/11/13 05:03:15;;;;;;;10.73;2.65;;;;;;;9.43;100.00;96664.66;5041063;28;20530;-63
2023/11/13 05:05:41;;;;;;;10.48;2.13;;;;;;;9.41;100.00;96670.31;5038071;28;20052;-63
2023/11/13 05:08:08;;;;;;;7.70;2.05;;;;;;;9.45;100.00;96662.50;5032703;28;20040;-63
2023/11/13 05:10:35;;;;;;;5.13;1.83;;;;;;;9.41;100.00;96664.91;5043145;28;20045;-63
2023/11/13 05:13:02;;;;;;;13.38;2.85;;;;;;;9.47;100.00;96660.34;5041002;28;20048;-62
2023/11/13 05:15:29;;;;;;;11.65;1.60;;;;;;;9.52;100.00;96670.34;5028328;28;20037;-63
2023/11/13 05:17:56;;;;;;;10.15;2.55;;;;;;;9.53;100.00;96663.88;5041503;28;20041;-63
2023/11/13 05:20:22;;;;;;;12.10;1.85;;;;;;;9.54;100.00;96665.53;5041436;28;20037;-62
2023/11/13 05:22:50;;;;;;;9.15;1.73;;;;;;;9.54;100.00;96660.13;5039396;28;20044;-63
2023/11/13 05:25:17;;;;;;;10.35;2.13;;;;;;;9.49;100.00;96655.47;5038290;28;20131;-63
2023/11/13 05:27:43;;;;;;;12.15;1.92;;;;;;;9.47;100.00;96644.94;5045895;28;20041;-63
2023/11/13 05:30:12;;;;;;;10.80;1.90;;;;;;;9.56;100.00;96650.66;5043682;28;20130;-63
2023/11/13 05:32:38;;;;;;;14.30;2.25;;;;;;;9.55;100.00;96657.13;5048373;28;20528;-63
2023/11/13 05:35:06;;;;;;;8.02;1.67;;;;;;;9.62;100.00;96643.41;5037051;28;20112;-63
2023/11/13 05:37:32;;;;;;;9.82;1.63;;;;;;;9.62;100.00;96646.09;5039117;28;20137;-63
2023/11/13 05:40:00;;;;;;;11.98;1.92;;;;;;;9.60;100.00;96659.06;5042158;28;20045;-63
2023/11/13 05:42:27;;;;;;;11.75;1.95;;;;;;;9.67;100.00;96666.91;5039698;28;20034;-63
2023/11/13 05:44:54;;;;;;;14.70;2.47;;;;;;;9.72;100.00;96664.22;5052419;28;20044;-63
2023/11/13 05:47:20;;;;;;;11.57;2.10;;;;;;;9.80;100.00;96671.03;5041187;28;20659;-63
2023/11/13 05:49:47;;;;;;;13.10;2.40;;;;;;;9.72;100.00;96667.75;5037654;28;20459;-63
2023/11/13 05:52:14;;;;;;;9.32;2.30;;;;;;;9.74;100.00;96662.09;5042776;28;20044;-63
2023/11/13 05:54:41;;;;;;;9.38;2.25;;;;;;;9.74;100.00;96657.47;5046894;28;20252;-63
2023/11/13 05:57:07;;;;;;;13.70;2.40;;;;;;;9.64;100.00;96652.03;5048650;28;20274;-63
2023/11/13 05:59:34;;;;;;;10.60;2.42;;;;;;;9.62;100.00;96665.03;5041482;28;20045;-63
2023/11/13 06:02:00;;;;;;;12.05;2.83;;;;;;;9.59;100.00;96665.53;5030094;28;20052;-63
2023/11/13 06:04:27;;;;;;;13.35;2.30;;;;;;;9.52;100.00;96673.88;5045660;28;20049;-63
2023/11/13 06:06:54;;;;;;;16.15;2.58;;;;;;;9.58;100.00;96670.13;5047788;28;20044;-63
2023/11/13 06:09:21;;;;;;;16.17;2.53;;;;;;;9.63;100.00;96661.22;5035834;28;20504;-63
2023/11/13 06:11:48;;;;;;;9.75;2.10;;;;;;;9.60;100.00;96669.84;5036210;28;20083;-63
2023/11/13 06:14:16;;;;;;;16.10;2.83;;;;;;;9.62;100.00;96673.13;5034974;28;20044;-63
2023/11/13 06:16:43;;;;;;;8.40;2.05;;;;;;;9.62;100.00;96679.34;5037547;28;20037;-63
2023/11/13 06:19:10;;;;;;;14.50;2.30;;;;;;;9.62;100.00;96689.34;5042041;28;20037;-63
2023/11/13 06:21:37;;;;;;;8.02;2.13;;;;;;;9.64;100.00;96681.78;5044167;28;20095;-62
2023/11/13 06:24:03;;;;;;;13.98;2.75;;;;;;;9.61;100.00;96683.13;5036334;28;20029;-61
2023/11/13 06:26:30;;;;;;;9.63;1.90;;;;;;;9.75;100.00;96671.81;5037493;28;20043;-62
2023/11/13 06:28:57;;;;;;;9.25;1.95;;;;;;;9.75;100.00;96672.66;5036404;28;20048;-62
2023/11/13 06:31:23;;;;;;;13.63;2.30;;;;;;;9.68;100.00;96672.06;5038046;28;20040;-61
2023/11/13 06:33:53;;;;;;;13.02;2.13;;;;;;;9.62;100.00;96673.13;5035915;28;20540;-62
2023/11/13 06:36:20;;;;;;;10.75;2.28;;;;;;;9.62;100.00;96671.22;5044168;28;20044;-61
2023/11/13 06:38:47;;;;;;;12.18;3.20;;;;;;;9.54;100.00;96671.72;5038099;28;20040;-61
2023/11/13 06:41:14;;;;;;;10.63;1.90;;;;;;;9.42;100.00;96669.22;5036353;28;20045;-61
2023/11/13 06:43:40;;;;;;;10.75;1.95;;;;;;;9.32;100.00;96663.78;5045709;28;20040;-61
2023/11/13 06:46:07;;;;;;;8.85;2.15;;;;;;;9.22;100.00;96667.22;5041406;28;20053;-62
2023/11/13 06:48:34;;;;;;;14.70;3.28;;;;;;;9.10;100.00;96672.81;5044819;28;20041;-62
2023/11/13 06:51:01;;;;;;;10.73;2.72;;;;;;;9.15;100.00;96685.53;5039874;28;20068;-62
2023/11/13 06:53:27;;;;;;;11.95;2.58;;;;;;;9.20;100.00;96686.41;5049150;28;20585;-62
2023/11/13 06:55:54;;;;;;;12.43;2.92;;;;;;;9.27;100.00;96696.16;5035155;28;20642;-61
2023/11/13 06:58:22;;;;;;;14.10;2.88;;;;;;;9.32;100.00;96697.00;5044080;28;20033;-60
2023/11/13 07:00:50;;;;;;;11.57;2.03;;;;;;;9.24;100.00;96697.47;5039453;28;20063;-61
2023/11/13 07:03:17;;;;;;;9.52;2.13;;;;;;;9.11;100.00;96701.47;5031592;28;20059;-61
2023/11/13 07:05:45;;;;;;;12.52;3.67;;;;;;;9.02;100.00;96711.09;5025835;28;20041;-61
2023/11/13 07:08:13;;;;;;;11.63;2.10;;;;;;;8.97;100.00;96715.41;5035345;28;20037;-62
2023/11/13 07:10:43;;;;;;;11.43;2.47;;;;;;;8.90;100.00;96732.88;5033283;28;20068;-62
2023/11/13 07:13:11;;;;;;;9.15;3.45;;;;;;;8.80;100.00;96730.88;5041593;28;20760;-62
2023/11/13 07:15:38;;;;;;;16.73;2.97;;;;;;;8.73;100.00;96730.31;5037737;28;20045;-62
2023/11/13 07:18:07;;;;;;;15.18;3.38;;;;;;;8.59;100.00;96738.81;5041965;28;20064;-62
2023/11/13 07:20:35;;;;;;;10.20;2.38;;;;;;;8.51;100.00;96740.03;5039162;28;20041;-62
2023/11/13 07:23:02;;;;;;;9.93;2.58;;;;;;;8.56;100.00;96737.41;5039768;28;20045;-72
2023/11/13 07:25:29;;;;;;;11.90;2.65;;;;;;;8.73;100.00;96738.41;5038702;28;20060;-63
2023/11/13 07:27:56;;;;;;;8.85;2.63;;;;;;;8.76;100.00;96743.28;5039749;28;20044;-63
2023/11/13 07:30:23;;;;;;;9.43;2.35;;;;;;;8.83;100.00;96746.59;5033257;28;20033;-63
2023/11/13 07:32:50;;;;;;;7.00;1.98;;;;;;;8.90;100.00;96740.97;5038422;28;20044;-63
2023/11/13 07:35:16;;;;;;;9.60;2.40;;;;;;;8.98;100.00;96741.31;5026256;28;20656;-63
2023/11/13 07:37:44;;;;;;;12.80;2.53;;;;;;;8.85;100.00;96734.47;5045019;28;20120;-63
2023/11/13 07:40:14;;;;;;;9.77;2.40;;;;;;;8.73;100.00;96727.59;5036419;28;20056;-63
2023/11/13 07:42:41;;;;;;;7.32;2.22;;;;;;;8.68;100.00;96731.06;5045674;28;20059;-63
2023/11/13 07:45:10;;;;;;;8.45;2.50;;;;;;;8.64;100.00;96721.84;5036867;28;20053;-63
2023/11/13 07:47:39;;;;;;;8.68;2.45;;;;;;;8.62;100.00;96727.50;5040998;28;20037;-63
2023/11/13 07:50:11;;;;;;;9.27;1.88;;;;;;;8.57;100.00;96732.84;5044310;28;20068;-63
2023/11/13 07:52:42;;;;;;;8.52;1.80;;;;;;;8.55;100.00;96735.00;5044236;28;20052;-63
2023/11/13 07:55:13;;;;;;;10.10;2.30;;;;;;;8.62;100.00;96734.78;5049198;28;20047;-63
2023/11/13 07:57:40;;;;;;;6.65;2.00;;;;;;;8.61;100.00;96725.03;5043483;28;20051;-63
2023/11/13 08:00:15;;;;;;;7.70;2.67;;;;;;;8.57;100.00;96728.28;5048986;28;20045;-63
2023/11/13 08:02:42;;;;;;;9.40;3.87;;;;;;;8.52;100.00;96732.78;5039882;28;20125;-64
2023/11/13 08:05:12;;;;;;;8.55;3.22;;;;;;;8.46;100.00;96738.13;5038562;28;20671;-63
2023/11/13 08:07:40;;;;;;;18.73;5.88;;;;;;;8.34;100.00;96740.16;5042256;28;20125;-63
2023/11/13 08:10:12;;;;;;;14.07;6.18;;;;;;;8.30;100.00;96747.09;5032762;28;20050;-63
2023/11/13 08:12:50;;;;;;;10.60;3.35;;;;;;;8.34;100.00;96737.44;5043044;28;20073;-63
2023/11/13 08:15:17;;;;;;;9.02;2.83;;;;;;;8.30;100.00;96747.09;5042628;28;20128;-62
2023/11/13 08:17:45;;;;;;;7.70;2.50;;;;;;;8.33;100.00;96743.88;5046371;28;20052;-63
2023/11/13 08:20:14;;;;;;;7.30;2.20;;;;;;;8.33;100.00;96743.88;5049671;28;20045;-63
2023/11/13 08:22:42;;;;;;;11.23;4.82;;;;;;;8.33;100.00;96749.28;5039681;28;20128;-63
2023/11/13 08:25:12;;;;;;;11.65;3.22;;;;;;;8.35;100.00;96749.03;5048018;28;20064;-63
2023/11/13 08:27:40;;;;;;;7.88;2.65;;;;;;;8.33;100.00;96749.28;5044228;28;20127;-63
2023/11/13 08:30:08;;;;;;;11.43;4.53;;;;;;;8.34;100.00;96748.25;5034079;28;20053;-63
2023/11/13 08:32:35;;;;;;;10.70;4.10;;;;;;;8.35;100.00;96755.25;5042221;28;20701;-63
2023/11/13 08:35:04;;;;;;;14.48;2.88;;;;;;;8.43;100.00;96741.31;5037984;28;20127;-63
2023/11/13 08:37:32;;;;;;;6.82;2.33;;;;;;;8.44;100.00;96736.75;5040618;28;20041;-64
2023/11/13 08:40:00;;;;;;;12.40;5.22;;;;;;;8.39;100.00;96726.72;5043871;28;20102;-63
2023/11/13 08:42:27;;;;;;;28.15;15.05;;;;;;;8.41;100.00;96721.84;5037681;28;20123;-63
2023/11/13 08:44:56;;;;;;;11.00;5.78;;;;;;;8.40;100.00;96714.84;5054773;28;20063;-64
2023/11/13 08:47:22;;;;;;;11.48;6.28;;;;;;;8.30;100.00;96710.16;5044810;28;20098;-63
2023/11/13 08:49:49;;;;;;;6.35;3.67;;;;;;;8.31;100.00;96697.47;5040890;28;20045;-63
2023/11/13 08:52:15;;;;;;;6.95;2.75;;;;;;;8.35;100.00;96698.59;5044158;28;20036;-63
2023/11/13 08:54:42;;;;;;;6.80;1.98;;;;;;;8.41;100.00;96688.69;5046017;28;20052;-63
2023/11/13 08:57:11;;;;;;;5.07;1.98;;;;;;;8.46;100.00;96686.03;5044429;28;20064;-63
2023/11/13 08:59:38;;;;;;;7.22;2.60;;;;;;;8.49;100.00;96682.84;5042736;28;20560;-63
2023/11/13 09:02:05;;;;;;;20.52;10.43;;;;;;;8.50;100.00;96673.66;5031889;28;20053;-63
2023/11/13 09:04:34;;;;;;;16.23;9.35;;;;;;;8.50;100.00;96668.28;5037899;28;20038;-63
2023/11/13 09:07:07;;;;;;;13.85;8.48;;;;;;;8.51;100.00;96661.78;5041235;28;20047;-63
2023/11/13 09:09:35;;;;;;;7.90;2.30;;;;;;;8.53;100.00;96659.69;5044888;28;20087;-63
2023/11/13 09:12:04;;;;;;;16.67;9.50;;;;;;;8.56;100.00;96659.16;5040772;28;20051;-63
2023/11/13 09:14:34;;;;;;;10.57;4.82;;;;;;;8.48;100.00;96658.81;5036928;28;20056;-63
2023/11/13 09:17:12;;;;;;;5.95;1.67;;;;;;;8.58;100.00;96661.63;5046139;28;20110;-63
2023/11/13 09:19:41;;;;;;;4.22;1.75;;;;;;;8.62;100.00;96653.84;5036316;28;20115;-64
2023/11/13 09:22:09;;;;;;;6.85;1.65;;;;;;;8.63;100.00;96650.88;5043559;28;20044;-63
2023/11/13 09:24:40;;;;;;;6.13;1.48;;;;;;;8.74;100.00;96643.69;5034115;28;20044;-63
2023/11/13 09:27:11;;;;;;;4.90;1.17;;;;;;;8.77;100.00;96648.53;5040294;28;20049;-63
2023/11/13 09:29:46;;;;;;;3.00;1.20;;;;;;;8.82;100.00;96637.78;5042268;28;20128;-63
2023/11/13 09:32:14;;;;;;;4.10;1.30;;;;;;;8.85;100.00;96641.88;5053510;28;20614;-63
2023/11/13 09:34:47;;;;;;;4.28;1.20;;;;;;;8.83;100.00;96652.94;5035770;28;20369;-63
2023/11/13 09:37:15;;;;;;;4.13;1.20;;;;;;;8.88;100.00;96652.13;5046823;28;20595;-63
2023/11/13 09:39:44;;;;;;;4.80;1.63;;;;;;;8.83;100.00;96657.50;5048149;28;20041;-63
2023/11/13 09:42:16;;;;;;;5.55;1.40;;;;;;;8.84;100.00;96659.94;5052846;28;20551;-63
2023/11/13 09:44:46;;;;;;;7.68;1.63;;;;;;;8.89;100.00;96651.09;5045465;28;20687;-63
2023/11/13 09:47:28;;;;;;;5.38;2.10;;;;;;;8.96;100.00;96638.16;5043742;28;20098;-63
2023/11/13 09:50:15;;;;;;;5.28;1.50;;;;;;;9.00;100.00;96637.66;5055223;28;20123;-63
2023/11/13 09:52:56;;;;;;;3.13;1.15;;;;;;;9.09;100.00;96627.97;5035938;28;20041;-63
2023/11/13 09:55:26;;;;;;;8.15;1.98;;;;;;;9.14;100.00;96619.91;5043448;28;20106;-63
2023/11/13 09:57:54;;;;;;;4.15;1.48;;;;;;;9.24;100.00;96633.47;5045404;28;20040;-63
2023/11/13 10:00:23;;;;;;;3.63;1.33;;;;;;;9.31;100.00;96627.84;5040208;28;20052;-63
2023/11/13 10:02:52;;;;;;;4.28;1.42;;;;;;;9.34;100.00;96630.03;5035519;28;20041;-63
2023/11/13 10:05:21;;;;;;;7.68;2.17;;;;;;;9.40;100.00;96627.34;5041151;28;20045;-63
2023/11/13 10:07:52;;;;;;;6.65;1.50;;;;;;;9.50;100.00;96635.50;5042936;28;20051;-63
2023/11/13 10:10:27;;;;;;;7.60;1.90;;;;;;;9.54;100.00;96627.69;5049002;28;20131;-64
2023/11/13 10:12:56;;;;;;;4.65;1.98;;;;;;;9.59;100.00;96625.00;5037287;28;20528;-63
2023/11/13 10:15:31;;;;;;;6.22;1.88;;;;;;;9.67;100.00;96629.06;5038719;28;20032;-63
2023/11/13 10:17:59;;;;;;;4.05;1.38;;;;;;;9.67;100.00;96624.50;5044505;28;20047;-64
2023/11/13 10:20:26;;;;;;;3.50;1.63;;;;;;;9.68;100.00;96625.28;5036947;28;20051;-63
2023/11/13 10:23:00;;;;;;;5.65;1.80;;;;;;;9.74;100.00;96619.63;5041319;28;20076;-63
2023/11/13 10:25:30;;;;;;;4.53;1.70;;;;;;;9.78;100.00;96627.22;5033562;28;20045;-64
2023/11/13 10:28:01;;;;;;;8.32;2.20;;;;;;;9.81;100.00;96624.81;5034155;28;20041;-64
2023/11/13 10:30:28;;;;;;;38.20;17.42;;;;;;;9.92;100.00;96616.72;5031691;28;20071;-64
2023/11/13 10:32:57;;;;;;;22.30;10.02;;;;;;;9.97;100.00;96622.13;5037243;28;20050;-63
2023/11/13 10:35:28;;;;;;;8.15;2.92;;;;;;;10.06;100.00;96623.25;5038280;28;20033;-64
2023/11/13 10:37:58;;;;;;;4.83;1.73;;;;;;;10.23;100.00;96597.84;5038652;28;20523;-63
2023/11/13 10:40:28;;;;;;;4.90;1.95;;;;;;;10.36;100.00;96574.88;5038608;28;20047;-64
2023/11/13 10:42:55;;;;;;;4.45;1.40;;;;;;;10.60;100.00;96563.50;5036038;28;20049;-63
2023/11/13 10:45:22;;;;;;;6.43;2.67;;;;;;;10.75;100.00;96552.66;5044036;28;20053;-63
2023/11/13 10:47:51;;;;;;;5.47;1.20;;;;;;;10.86;100.00;96542.63;5042383;28;20045;-63
2023/11/13 10:50:23;;;;;;;7.13;1.70;;;;;;;10.92;100.00;96538.81;5044138;28;20046;-63
2023/11/13 10:52:52;;;;;;;5.90;2.05;;;;;;;10.98;100.00;96544.25;5042672;28;20124;-63
2023/11/13 10:55:21;;;;;;;3.08;1.10;;;;;;;11.10;100.00;96541.22;5036949;28;20051;-63
2023/11/13 10:57:49;;;;;;;2.42;1.02;;;;;;;11.16;100.00;96523.84;5039553;28;20905;-63
2023/11/13 11:00:16;;;;;;;2.97;1.65;;;;;;;11.20;100.00;96530.34;5036276;28;20053;-62
2023/11/13 11:02:45;;;;;;;4.72;1.33;;;;;;;11.25;100.00;96541.19;5042007;28;20107;-63
2023/11/13 11:05:18;;;;;;;4.03;1.83;;;;;;;11.19;100.00;96534.97;5044955;28;20791;-63
2023/11/13 11:07:49;;;;;;;6.88;1.45;;;;;;;11.18;100.00;96533.31;5035116;28;20041;-63
2023/11/13 11:10:16;;;;;;;4.25;1.50;;;;;;;11.15;100.00;96522.22;5039700;28;20105;-63
2023/11/13 11:12:50;;;;;;;6.95;1.58;;;;;;;11.16;100.00;96540.09;5042315;28;20053;-63
2023/11/13 11:15:55;;;;;;;11.65;6.57;;;;;;;11.14;100.00;96547.72;5041063;28;20236;-63
2023/11/13 11:18:40;;;;;;;5.55;2.60;;;;;;;11.08;100.00;96551.50;5047711;28;20044;-62
2023/11/13 11:21:39;;;;;;;5.22;1.15;;;;;;;11.11;100.00;96550.97;5046967;28;20040;-63
2023/11/13 11:24:11;;;;;;;4.97;1.65;;;;;;;11.16;100.00;96557.19;5046027;28;20036;-63
2023/11/13 11:27:00;;;;;;;6.18;1.67;;;;;;;11.17;100.00;96545.25;5038020;28;20118;-64
2023/11/13 11:29:37;;;;;;;5.00;3.03;;;;;;;11.16;100.00;96549.06;5036525;28;20036;-63
2023/11/13 11:32:13;;;;;;;9.07;2.33;;;;;;;11.21;100.00;96536.56;5042488;28;20082;-63
2023/11/13 11:34:42;;;;;;;3.75;1.42;;;;;;;11.26;100.00;96534.66;5039263;28;20404;-63